Time;durP1;ratioP1;P1;durP2;ratioP2;P2;SDS_P1;SDS_P2;PMS_P1;PMS_P2;Temp;Humidity;BMP_temperature;BMP_pressure;BME280_temperature;BME280_humidity;BME280_pressure;Samples;Min_cycle;Max_cycle;Signal;HPM_P1;HPM_P2
2023/08/31 00:00:44;;;;;;;3.63;2.37;;;;;;;;;;5073039;28;20181;-86
2023/08/31 00:03:10;;;;;;;2.70;2.03;;;;;;;;;;5044943;28;20704;-85
2023/08/31 00:05:40;;;;;;;3.63;2.30;;;;;;;;;;5069379;28;20711;-85
2023/08/31 00:08:06;;;;;;;4.77;2.40;;;;;;;;;;5070734;28;20630;-86
2023/08/31 00:10:32;;;;;;;2.97;2.37;;;;;;;;;;5050279;28;20183;-87
2023/08/31 00:12:58;;;;;;;2.77;2.30;;;;;;;;;;5063039;28;20181;-85
2023/08/31 00:15:25;;;;;;;4.27;2.30;;;;;;;;;;5040004;28;20211;-85
2023/08/31 00:17:51;;;;;;;3.47;2.20;;;;;;;;;;5075591;28;20229;-86
2023/08/31 00:20:17;;;;;;;2.73;2.40;;;;;;;;;;5073845;28;20183;-86
2023/08/31 00:22:43;;;;;;;6.33;2.40;;;;;;;;;;5068113;28;20213;-85
2023/08/31 00:25:09;;;;;;;2.37;2.13;;;;;;;;;;5071951;28;20215;-85
2023/08/31 00:27:37;;;;;;;2.30;2.10;;;;;;;;;;5072295;28;20203;-82
2023/08/31 00:30:08;;;;;;;2.97;2.37;;;;;;;;;;5071328;28;20177;-86
2023/08/31 00:32:34;;;;;;;3.00;2.70;;;;;;;;;;5066162;28;20276;-83
2023/08/31 00:35:01;;;;;;;4.00;2.27;;;;;;;;;;5067215;28;20248;-83
2023/08/31 00:37:27;;;;;;;3.43;2.40;;;;;;;;;;5071645;28;20187;-83
2023/08/31 00:39:54;;;;;;;2.40;2.20;;;;;;;;;;5073259;28;20181;-83
2023/08/31 00:42:21;;;;;;;2.17;1.97;;;;;;;;;;5049118;28;20182;-82
2023/08/31 00:44:48;;;;;;;3.23;2.10;;;;;;;;;;5062697;28;20419;-84
2023/08/31 00:47:15;;;;;;;2.87;2.30;;;;;;;;;;5071591;28;20661;-83
2023/08/31 00:49:41;;;;;;;2.60;2.40;;;;;;;;;;5072747;28;20179;-82
2023/08/31 00:52:07;;;;;;;5.37;2.23;;;;;;;;;;5059908;28;20662;-82
2023/08/31 00:54:34;;;;;;;3.27;2.60;;;;;;;;;;5058617;28;20525;-82
2023/08/31 00:57:00;;;;;;;3.30;2.40;;;;;;;;;;5067791;28;20161;-84
2023/08/31 00:59:26;;;;;;;2.50;2.30;;;;;;;;;;5063919;28;20174;-82
2023/08/31 01:01:52;;;;;;;2.83;2.37;;;;;;;;;;5069487;28;20204;-82
2023/08/31 01:04:36;;;;;;;2.30;2.10;;;;;;;;;;5071625;28;20244;-83
2023/08/31 01:07:23;;;;;;;2.73;2.53;;;;;;;;;;5068571;28;20219;-84
2023/08/31 01:10:06;;;;;;;2.70;2.33;;;;;;;;;;5055759;28;20517;-84
2023/08/31 01:12:45;;;;;;;2.50;2.30;;;;;;;;;;5066526;28;20170;-85
2023/08/31 01:15:12;;;;;;;3.23;2.57;;;;;;;;;;5070482;28;20203;-83
2023/08/31 01:17:42;;;;;;;2.57;2.37;;;;;;;;;;5072607;28;20565;-82
2023/08/31 01:20:09;;;;;;;2.73;2.40;;;;;;;;;;5071087;28;20602;-83
2023/08/31 01:22:40;;;;;;;2.93;2.50;;;;;;;;;;5070664;28;20679;-83
2023/08/31 01:25:08;;;;;;;2.83;2.43;;;;;;;;;;5063317;28;20184;-84
2023/08/31 01:27:35;;;;;;;3.17;2.60;;;;;;;;;;5071651;28;20203;-82
2023/08/31 01:30:01;;;;;;;4.70;2.43;;;;;;;;;;5069079;28;20183;-82
2023/08/31 01:32:27;;;;;;;2.33;2.13;;;;;;;;;;5069959;28;20203;-83
2023/08/31 01:34:53;;;;;;;2.97;2.30;;;;;;;;;;5065787;28;20185;-83
2023/08/31 01:37:25;;;;;;;3.93;2.80;;;;;;;;;;5066984;28;20284;-83
2023/08/31 01:39:56;;;;;;;3.47;2.20;;;;;;;;;;5061931;28;20206;-83
2023/08/31 01:42:22;;;;;;;2.93;2.40;;;;;;;;;;5064881;28;20188;-84
2023/08/31 01:44:49;;;;;;;4.00;2.10;;;;;;;;;;5068845;28;20272;-84
2023/08/31 01:47:16;;;;;;;3.80;2.60;;;;;;;;;;5070646;28;20206;-82
2023/08/31 01:49:43;;;;;;;3.00;2.20;;;;;;;;;;5070820;28;20784;-85
2023/08/31 01:52:09;;;;;;;3.90;2.37;;;;;;;;;;5070220;28;20282;-82
2023/08/31 01:54:37;;;;;;;5.93;3.07;;;;;;;;;;5071459;28;20250;-83
2023/08/31 01:57:04;;;;;;;3.43;2.43;;;;;;;;;;5063948;28;20209;-83
2023/08/31 01:59:30;;;;;;;2.93;2.50;;;;;;;;;;5070681;28;20315;-83
2023/08/31 02:01:56;;;;;;;3.33;2.60;;;;;;;;;;5048637;28;20759;-83
2023/08/31 02:04:22;;;;;;;3.00;2.53;;;;;;;;;;5066973;28;20315;-81
2023/08/31 02:06:48;;;;;;;3.00;2.60;;;;;;;;;;5069708;28;20728;-84
2023/08/31 02:09:14;;;;;;;3.27;2.40;;;;;;;;;;5072960;28;20186;-82
2023/08/31 02:11:40;;;;;;;4.90;2.80;;;;;;;;;;5070046;28;20204;-84
2023/08/31 02:14:07;;;;;;;2.10;1.90;;;;;;;;;;5070016;28;20198;-83
2023/08/31 02:16:33;;;;;;;2.60;2.27;;;;;;;;;;5071662;28;20288;-83
2023/08/31 02:19:00;;;;;;;3.20;2.90;;;;;;;;;;5075074;28;20202;-83
2023/08/31 02:21:26;;;;;;;3.90;3.60;;;;;;;;;;5077703;28;20185;-82
2023/08/31 02:23:52;;;;;;;3.43;2.53;;;;;;;;;;5076691;28;20169;-83
2023/08/31 02:26:18;;;;;;;3.10;2.70;;;;;;;;;;5077865;28;20169;-84
2023/08/31 02:28:44;;;;;;;2.63;2.43;;;;;;;;;;5075345;28;20265;-83
2023/08/31 02:31:11;;;;;;;4.83;2.50;;;;;;;;;;5075679;28;20249;-86
2023/08/31 02:33:37;;;;;;;2.43;2.23;;;;;;;;;;5077458;28;20849;-83
2023/08/31 02:36:04;;;;;;;4.07;2.70;;;;;;;;;;5075288;28;20196;-82
2023/08/31 02:38:30;;;;;;;3.10;2.30;;;;;;;;;;5075567;28;20176;-82
2023/08/31 02:40:55;;;;;;;3.23;2.83;;;;;;;;;;5074878;28;20231;-81
2023/08/31 02:43:21;;;;;;;3.20;2.47;;;;;;;;;;5077024;28;20190;-82
2023/08/31 02:45:47;;;;;;;2.47;2.27;;;;;;;;;;5074588;28;20203;-83
2023/08/31 02:48:13;;;;;;;2.23;2.03;;;;;;;;;;5078587;28;20205;-86
2023/08/31 02:50:40;;;;;;;2.77;2.50;;;;;;;;;;5074195;28;20525;-85
2023/08/31 02:53:06;;;;;;;2.77;2.50;;;;;;;;;;5077302;28;20239;-87
2023/08/31 02:55:35;;;;;;;4.00;2.97;;;;;;;;;;5059205;28;20186;-85
2023/08/31 02:58:01;;;;;;;2.97;2.67;;;;;;;;;;5063207;28;20181;-86
2023/08/31 03:00:28;;;;;;;2.50;2.30;;;;;;;;;;5074714;28;20185;-85
2023/08/31 03:02:54;;;;;;;2.73;2.53;;;;;;;;;;5059801;28;20182;-85
2023/08/31 03:05:23;;;;;;;2.87;2.63;;;;;;;;;;5066114;28;20232;-85
2023/08/31 03:07:52;;;;;;;2.70;2.50;;;;;;;;;;5064595;28;20193;-85
2023/08/31 03:10:18;;;;;;;3.27;2.70;;;;;;;;;;5073590;28;20200;-85
2023/08/31 03:12:45;;;;;;;2.50;2.30;;;;;;;;;;5058361;28;20178;-84
2023/08/31 03:15:11;;;;;;;2.47;2.27;;;;;;;;;;5074245;28;20695;-86
2023/08/31 03:17:37;;;;;;;2.80;2.60;;;;;;;;;;5062476;28;20180;-84
2023/08/31 03:20:06;;;;;;;3.63;2.97;;;;;;;;;;5069148;28;20206;-86
2023/08/31 03:22:32;;;;;;;3.47;2.57;;;;;;;;;;5061687;28;20570;-85
2023/08/31 03:24:58;;;;;;;2.67;2.37;;;;;;;;;;5071996;28;20215;-85
2023/08/31 03:27:24;;;;;;;2.43;2.23;;;;;;;;;;5061955;28;20195;-83
2023/08/31 03:29:50;;;;;;;3.43;2.20;;;;;;;;;;5068862;28;20178;-83
2023/08/31 03:32:16;;;;;;;2.40;2.20;;;;;;;;;;5065566;28;20554;-81
2023/08/31 03:34:42;;;;;;;3.70;2.30;;;;;;;;;;5070845;28;20630;-83
2023/08/31 03:37:09;;;;;;;2.57;2.20;;;;;;;;;;5074826;28;20185;-81
2023/08/31 03:39:35;;;;;;;2.50;2.30;;;;;;;;;;5056434;28;20191;-82
2023/08/31 03:42:02;;;;;;;4.13;2.10;;;;;;;;;;5075571;28;20211;-82
2023/08/31 03:44:28;;;;;;;2.57;2.23;;;;;;;;;;5075089;28;20254;-83
2023/08/31 03:46:54;;;;;;;2.33;2.13;;;;;;;;;;5074897;28;20222;-83
2023/08/31 03:49:20;;;;;;;2.57;2.37;;;;;;;;;;5075270;28;20619;-82
2023/08/31 03:51:46;;;;;;;2.63;2.43;;;;;;;;;;5072508;28;20666;-83
2023/08/31 03:54:12;;;;;;;3.83;2.10;;;;;;;;;;5074921;28;20180;-82
2023/08/31 03:56:39;;;;;;;2.87;2.47;;;;;;;;;;5079807;28;20256;-85
2023/08/31 03:59:06;;;;;;;2.57;2.37;;;;;;;;;;5096369;28;20288;-85
2023/08/31 04:01:32;;;;;;;4.33;2.30;;;;;;;;;;5094259;28;20176;-85
2023/08/31 04:03:58;;;;;;;2.80;2.20;;;;;;;;;;5096358;28;20185;-85
2023/08/31 04:06:24;;;;;;;5.13;2.63;;;;;;;;;;5094467;28;20218;-85
2023/08/31 04:08:50;;;;;;;2.43;2.23;;;;;;;;;;5092091;28;20204;-85
2023/08/31 04:11:16;;;;;;;2.23;2.00;;;;;;;;;;5081796;28;20196;-85
2023/08/31 04:13:42;;;;;;;2.43;2.10;;;;;;;;;;5079426;28;20241;-88
2023/08/31 04:16:08;;;;;;;2.37;2.17;;;;;;;;;;5058056;28;20188;-88
2023/08/31 04:18:34;;;;;;;2.20;2.00;;;;;;;;;;5078809;28;20191;-86
2023/08/31 04:21:03;;;;;;;2.80;2.60;;;;;;;;;;5081020;28;20172;-85
2023/08/31 04:23:29;;;;;;;2.90;2.50;;;;;;;;;;5096364;28;20249;-86
2023/08/31 04:25:57;;;;;;;2.47;2.27;;;;;;;;;;5095128;28;20161;-87
2023/08/31 04:28:24;;;;;;;2.60;2.40;;;;;;;;;;5070490;28;20205;-85
2023/08/31 04:30:50;;;;;;;2.30;2.00;;;;;;;;;;5083236;28;20195;-86
2023/08/31 04:33:16;;;;;;;2.50;2.13;;;;;;;;;;5072965;28;20177;-88
2023/08/31 04:35:42;;;;;;;3.17;2.03;;;;;;;;;;5063183;28;20185;-87
2023/08/31 04:38:09;;;;;;;3.60;2.00;;;;;;;;;;5078105;28;20223;-87
2023/08/31 04:40:36;;;;;;;5.30;2.50;;;;;;;;;;5068592;28;20628;-85
2023/08/31 04:43:02;;;;;;;3.00;2.10;;;;;;;;;;5073236;28;20186;-86
2023/08/31 04:45:28;;;;;;;2.50;2.30;;;;;;;;;;5045851;28;20187;-85
2023/08/31 04:47:54;;;;;;;3.20;2.07;;;;;;;;;;5078304;28;20243;-86
2023/08/31 04:50:20;;;;;;;2.57;2.37;;;;;;;;;;5075973;28;20169;-86
2023/08/31 04:52:46;;;;;;;2.63;2.43;;;;;;;;;;5074478;28;20173;-86
2023/08/31 04:55:13;;;;;;;3.53;2.90;;;;;;;;;;5075154;28;20180;-85
2023/08/31 04:57:39;;;;;;;2.90;2.60;;;;;;;;;;5057017;28;20225;-86
2023/08/31 05:00:08;;;;;;;4.10;2.60;;;;;;;;;;5076422;28;20192;-84
2023/08/31 05:02:35;;;;;;;2.43;2.23;;;;;;;;;;5072620;28;20218;-86
2023/08/31 05:05:01;;;;;;;4.23;2.70;;;;;;;;;;5074400;28;20224;-87
2023/08/31 05:07:27;;;;;;;3.17;2.80;;;;;;;;;;5048970;28;20197;-86
2023/08/31 05:09:53;;;;;;;3.20;2.67;;;;;;;;;;5052766;28;20174;-81
2023/08/31 05:12:19;;;;;;;2.50;2.30;;;;;;;;;;5073902;28;20643;-83
2023/08/31 05:14:45;;;;;;;2.90;2.70;;;;;;;;;;5054284;28;20176;-82
2023/08/31 05:17:11;;;;;;;3.13;2.80;;;;;;;;;;5073154;28;20193;-82
2023/08/31 05:19:37;;;;;;;3.37;2.90;;;;;;;;;;5071916;28;20195;-80
2023/08/31 05:22:03;;;;;;;3.67;3.10;;;;;;;;;;5074483;28;20185;-80
2023/08/31 05:24:29;;;;;;;3.63;3.33;;;;;;;;;;5072243;28;20611;-79
2023/08/31 05:26:55;;;;;;;5.40;3.80;;;;;;;;;;5051351;28;20334;-77
2023/08/31 05:29:21;;;;;;;5.87;4.03;;;;;;;;;;5064875;28;20294;-79
2023/08/31 05:31:47;;;;;;;4.00;3.70;;;;;;;;;;5064072;28;20176;-85
2023/08/31 05:34:17;;;;;;;3.70;3.40;;;;;;;;;;5052568;28;20165;-86
2023/08/31 05:36:44;;;;;;;5.87;3.53;;;;;;;;;;5053497;28;20916;-81
2023/08/31 05:39:10;;;;;;;6.37;3.70;;;;;;;;;;5071411;28;20180;-82
2023/08/31 05:41:36;;;;;;;4.30;3.90;;;;;;;;;;5073219;28;20173;-84
2023/08/31 05:44:02;;;;;;;5.07;3.97;;;;;;;;;;5074356;28;20208;-81
2023/08/31 05:46:28;;;;;;;4.23;3.70;;;;;;;;;;5070811;28;20568;-86
2023/08/31 05:48:54;;;;;;;6.67;4.40;;;;;;;;;;5076908;28;20211;-86
2023/08/31 05:51:20;;;;;;;5.33;4.20;;;;;;;;;;5062499;28;20562;-87
2023/08/31 05:53:46;;;;;;;4.60;4.20;;;;;;;;;;5057117;28;20165;-87
2023/08/31 05:56:12;;;;;;;6.83;5.00;;;;;;;;;;5043402;28;20254;-87
2023/08/31 05:58:38;;;;;;;5.70;4.53;;;;;;;;;;5073676;28;20632;-87
2023/08/31 06:01:05;;;;;;;4.30;3.90;;;;;;;;;;5071553;28;20242;-87
2023/08/31 06:03:31;;;;;;;4.90;4.50;;;;;;;;;;5056876;28;20179;-86
2023/08/31 06:05:58;;;;;;;4.73;4.13;;;;;;;;;;5059697;28;20224;-85
2023/08/31 06:08:25;;;;;;;5.60;3.90;;;;;;;;;;5054476;28;20270;-85
2023/08/31 06:10:51;;;;;;;5.43;4.20;;;;;;;;;;5057263;28;20697;-86
2023/08/31 06:13:17;;;;;;;8.40;5.20;;;;;;;;;;5077977;28;20545;-85
2023/08/31 06:15:44;;;;;;;4.63;4.03;;;;;;;;;;5077554;28;20196;-85
2023/08/31 06:18:10;;;;;;;4.80;4.30;;;;;;;;;;5077234;28;20161;-85
2023/08/31 06:20:36;;;;;;;5.57;4.50;;;;;;;;;;5075859;28;20189;-85
2023/08/31 06:23:03;;;;;;;6.60;5.00;;;;;;;;;;5074095;28;20463;-86
2023/08/31 06:25:29;;;;;;;4.40;4.00;;;;;;;;;;5073951;28;20555;-85
2023/08/31 06:27:55;;;;;;;5.60;4.40;;;;;;;;;;5075939;28;20220;-85
2023/08/31 06:30:21;;;;;;;6.77;4.63;;;;;;;;;;5075669;28;20157;-85
2023/08/31 06:32:48;;;;;;;4.90;4.50;;;;;;;;;;5075062;28;20541;-85
2023/08/31 06:35:17;;;;;;;4.87;4.40;;;;;;;;;;5075716;28;20180;-86
2023/08/31 06:37:43;;;;;;;7.77;4.93;;;;;;;;;;5075320;28;20176;-85
2023/08/31 06:40:10;;;;;;;5.80;4.57;;;;;;;;;;5074190;28;20176;-85
2023/08/31 06:42:39;;;;;;;5.67;4.27;;;;;;;;;;5074817;28;20180;-86
2023/08/31 06:45:06;;;;;;;4.80;4.40;;;;;;;;;;5074962;28;20176;-85
2023/08/31 06:47:33;;;;;;;5.97;4.23;;;;;;;;;;5069701;28;20196;-85
2023/08/31 06:49:59;;;;;;;5.80;4.60;;;;;;;;;;5072539;28;20540;-85
2023/08/31 06:52:26;;;;;;;8.07;4.73;;;;;;;;;;5072318;28;20585;-85
2023/08/31 06:54:56;;;;;;;7.17;4.13;;;;;;;;;;5072140;28;20177;-86
2023/08/31 06:57:22;;;;;;;5.77;4.50;;;;;;;;;;5071168;28;20402;-84
2023/08/31 06:59:48;;;;;;;5.13;4.60;;;;;;;;;;5069699;28;20656;-85
2023/08/31 07:02:15;;;;;;;5.77;4.50;;;;;;;;;;5073462;28;20184;-85
2023/08/31 07:04:41;;;;;;;5.47;4.97;;;;;;;;;;5075497;28;20203;-85
2023/08/31 07:07:08;;;;;;;6.73;4.17;;;;;;;;;;5077357;28;20204;-85
2023/08/31 07:09:34;;;;;;;6.77;4.10;;;;;;;;;;5075562;28;20227;-85
2023/08/31 07:12:01;;;;;;;6.03;4.10;;;;;;;;;;5075848;28;20172;-85
2023/08/31 07:14:27;;;;;;;5.50;4.23;;;;;;;;;;5055668;28;20188;-85
2023/08/31 07:16:53;;;;;;;4.63;4.17;;;;;;;;;;5075563;28;20176;-85
2023/08/31 07:19:19;;;;;;;5.43;4.83;;;;;;;;;;5074437;28;20184;-85
2023/08/31 07:21:46;;;;;;;4.60;4.20;;;;;;;;;;5077910;28;20188;-85
2023/08/31 07:24:12;;;;;;;6.37;3.77;;;;;;;;;;5060559;28;20181;-85
2023/08/31 07:26:38;;;;;;;6.43;4.20;;;;;;;;;;5072509;28;20418;-85
2023/08/31 07:29:05;;;;;;;5.20;4.53;;;;;;;;;;5074353;28;20192;-84
2023/08/31 07:31:31;;;;;;;6.30;5.00;;;;;;;;;;5056976;28;20181;-84
2023/08/31 07:33:58;;;;;;;7.63;4.97;;;;;;;;;;5077136;28;20617;-84
2023/08/31 07:36:24;;;;;;;5.70;4.50;;;;;;;;;;5058632;28;20280;-84
2023/08/31 07:38:50;;;;;;;5.97;3.90;;;;;;;;;;5076923;28;20653;-85
2023/08/31 07:41:16;;;;;;;5.50;3.90;;;;;;;;;;5076608;28;20161;-84
2023/08/31 07:43:42;;;;;;;4.20;3.80;;;;;;;;;;5076532;28;20185;-84
2023/08/31 07:46:08;;;;;;;5.87;4.00;;;;;;;;;;5065257;28;20669;-85
2023/08/31 07:48:34;;;;;;;6.00;4.53;;;;;;;;;;5074227;28;20209;-85
2023/08/31 07:51:00;;;;;;;6.10;4.00;;;;;;;;;;5058924;28;20180;-85
2023/08/31 07:53:26;;;;;;;5.77;3.57;;;;;;;;;;5077141;28;20164;-85
2023/08/31 07:55:54;;;;;;;4.60;4.10;;;;;;;;;;5076836;28;20172;-85
2023/08/31 07:58:20;;;;;;;5.33;3.80;;;;;;;;;;5081708;28;20183;-85
2023/08/31 08:00:46;;;;;;;8.40;4.00;;;;;;;;;;5086825;28;20174;-85
2023/08/31 08:03:12;;;;;;;5.57;4.33;;;;;;;;;;5057917;28;20697;-85
2023/08/31 08:05:40;;;;;;;6.73;4.13;;;;;;;;;;5066682;28;20233;-85
2023/08/31 08:08:06;;;;;;;6.17;4.10;;;;;;;;;;5078320;28;20737;-84
2023/08/31 08:10:32;;;;;;;6.13;4.10;;;;;;;;;;5077536;28;20173;-85
2023/08/31 08:12:58;;;;;;;7.37;3.57;;;;;;;;;;5076490;28;20177;-84
2023/08/31 08:15:25;;;;;;;4.60;4.13;;;;;;;;;;5058666;28;20157;-85
2023/08/31 08:17:53;;;;;;;6.07;3.83;;;;;;;;;;5068293;28;20563;-85
2023/08/31 08:20:19;;;;;;;4.43;4.00;;;;;;;;;;5057941;28;20179;-86
2023/08/31 08:22:45;;;;;;;4.90;3.77;;;;;;;;;;5071544;28;20223;-86
2023/08/31 08:25:12;;;;;;;4.73;3.50;;;;;;;;;;5077406;28;20176;-85
2023/08/31 08:27:38;;;;;;;6.30;3.80;;;;;;;;;;5058307;28;20228;-86
2023/08/31 08:30:04;;;;;;;3.90;3.30;;;;;;;;;;5057249;28;20663;-85
2023/08/31 08:32:30;;;;;;;4.27;3.17;;;;;;;;;;5071980;28;20238;-85
2023/08/31 08:34:56;;;;;;;4.63;3.47;;;;;;;;;;5078853;28;20172;-85
2023/08/31 08:37:22;;;;;;;5.33;3.27;;;;;;;;;;5078515;28;20212;-86
2023/08/31 08:39:49;;;;;;;3.60;3.30;;;;;;;;;;5078113;28;20188;-86
2023/08/31 08:42:17;;;;;;;6.67;3.13;;;;;;;;;;5069318;28;20177;-86
2023/08/31 08:44:44;;;;;;;4.33;3.27;;;;;;;;;;5076838;28;20180;-85
2023/08/31 08:47:11;;;;;;;4.90;3.53;;;;;;;;;;5076758;28;20185;-85
2023/08/31 08:49:37;;;;;;;4.83;3.60;;;;;;;;;;5077630;28;20175;-85
2023/08/31 08:52:04;;;;;;;5.17;3.00;;;;;;;;;;5076290;28;20631;-85
2023/08/31 08:54:30;;;;;;;5.20;3.40;;;;;;;;;;5059282;28;20188;-84
2023/08/31 08:56:57;;;;;;;4.50;3.53;;;;;;;;;;5069553;28;20668;-85
2023/08/31 08:59:23;;;;;;;3.40;2.77;;;;;;;;;;5069866;28;20187;-82
2023/08/31 09:01:49;;;;;;;5.10;3.57;;;;;;;;;;5066709;28;20726;-84
2023/08/31 09:04:16;;;;;;;12.20;4.13;;;;;;;;;;5065425;28;20313;-85
2023/08/31 09:06:42;;;;;;;5.23;3.40;;;;;;;;;;5069002;28;20229;-86
2023/08/31 09:09:08;;;;;;;3.73;3.30;;;;;;;;;;5068602;28;20191;-89
2023/08/31 09:11:35;;;;;;;4.23;3.20;;;;;;;;;;5048444;28;20577;-82
2023/08/31 09:14:14;;;;;;;4.03;3.13;;;;;;;;;;5070079;28;20181;-86
2023/08/31 09:16:40;;;;;;;3.20;2.90;;;;;;;;;;5067968;28;20183;-86
2023/08/31 09:19:18;;;;;;;6.03;3.60;;;;;;;;;;5068877;28;20826;-84
2023/08/31 09:21:45;;;;;;;5.63;3.20;;;;;;;;;;5050602;28;20276;-83
2023/08/31 09:24:13;;;;;;;2.97;2.43;;;;;;;;;;5075456;28;20641;-83
2023/08/31 09:26:39;;;;;;;3.37;2.50;;;;;;;;;;5074832;28;20210;-86
2023/08/31 09:29:06;;;;;;;4.57;2.77;;;;;;;;;;5066488;28;20203;-86
2023/08/31 09:31:32;;;;;;;4.73;2.73;;;;;;;;;;5068888;28;20213;-85
2023/08/31 09:33:58;;;;;;;3.57;2.73;;;;;;;;;;5075992;28;20177;-87
2023/08/31 09:36:24;;;;;;;6.27;3.10;;;;;;;;;;5077978;28;20710;-86
2023/08/31 09:38:50;;;;;;;4.20;2.70;;;;;;;;;;5068395;28;20242;-86
2023/08/31 09:41:16;;;;;;;2.73;2.53;;;;;;;;;;5069351;28;20184;-85
2023/08/31 09:43:44;;;;;;;4.37;3.10;;;;;;;;;;5080406;28;20180;-84
2023/08/31 09:46:10;;;;;;;3.10;2.50;;;;;;;;;;5071949;28;20176;-83
2023/08/31 09:48:37;;;;;;;4.60;2.97;;;;;;;;;;5061635;28;20199;-80
2023/08/31 09:51:04;;;;;;;7.93;2.60;;;;;;;;;;5072540;28;20179;-82
2023/08/31 09:53:31;;;;;;;3.13;2.40;;;;;;;;;;5043997;28;20299;-83
2023/08/31 09:55:57;;;;;;;3.67;2.60;;;;;;;;;;5055053;28;20236;-84
2023/08/31 09:58:24;;;;;;;4.97;2.30;;;;;;;;;;5076180;28;20195;-84
2023/08/31 10:00:51;;;;;;;2.67;2.37;;;;;;;;;;5072009;28;20686;-84
2023/08/31 10:03:17;;;;;;;4.13;2.50;;;;;;;;;;5063377;28;20225;-85
2023/08/31 10:05:44;;;;;;;4.03;2.50;;;;;;;;;;5064934;28;20267;-83
2023/08/31 10:08:10;;;;;;;3.87;3.20;;;;;;;;;;5070206;28;20228;-85
2023/08/31 10:10:37;;;;;;;3.50;2.70;;;;;;;;;;5079949;28;20173;-84
2023/08/31 10:13:05;;;;;;;3.50;2.57;;;;;;;;;;5078824;28;20230;-84
2023/08/31 10:15:38;;;;;;;5.03;2.60;;;;;;;;;;5078290;28;20697;-84
2023/08/31 10:18:07;;;;;;;5.07;3.53;;;;;;;;;;5079317;28;20310;-85
2023/08/31 10:20:34;;;;;;;4.27;2.87;;;;;;;;;;5063290;28;20196;-85
2023/08/31 10:23:03;;;;;;;6.03;3.00;;;;;;;;;;5066112;28;20193;-83
2023/08/31 10:25:49;;;;;;;5.30;3.80;;;;;;;;;;5066416;28;20208;-84
2023/08/31 10:28:18;;;;;;;4.10;2.87;;;;;;;;;;5074085;28;20224;-84
2023/08/31 10:31:02;;;;;;;4.97;2.87;;;;;;;;;;5072248;28;20248;-84
2023/08/31 10:33:28;;;;;;;5.20;2.90;;;;;;;;;;5072869;28;20189;-84
2023/08/31 10:35:57;;;;;;;3.47;2.40;;;;;;;;;;5067102;28;20176;-84
2023/08/31 10:38:33;;;;;;;3.93;2.00;;;;;;;;;;5072659;28;20183;-84
2023/08/31 10:41:09;;;;;;;4.13;2.77;;;;;;;;;;5076196;28;20206;-84
2023/08/31 10:43:50;;;;;;;5.10;3.33;;;;;;;;;;5067958;28;20264;-85
2023/08/31 10:46:17;;;;;;;6.40;2.67;;;;;;;;;;5071949;28;20212;-85
2023/08/31 10:48:50;;;;;;;5.20;2.93;;;;;;;;;;5075585;28;20205;-84
2023/08/31 10:51:22;;;;;;;5.47;3.20;;;;;;;;;;5066512;28;20172;-85
2023/08/31 10:53:48;;;;;;;6.23;3.13;;;;;;;;;;5064345;28;20606;-84
2023/08/31 10:56:16;;;;;;;5.57;3.10;;;;;;;;;;5073462;28;20484;-84
2023/08/31 10:58:44;;;;;;;3.63;2.77;;;;;;;;;;5076087;28;20176;-84
2023/08/31 11:01:10;;;;;;;4.03;2.77;;;;;;;;;;5069376;28;20208;-84
2023/08/31 11:03:55;;;;;;;5.47;3.33;;;;;;;;;;5078340;28;20182;-84
2023/08/31 11:06:21;;;;;;;3.33;2.20;;;;;;;;;;5073021;28;20228;-83
2023/08/31 11:08:47;;;;;;;5.57;2.50;;;;;;;;;;5081041;28;20189;-85
2023/08/31 11:11:13;;;;;;;5.77;2.87;;;;;;;;;;5078559;28;20176;-83
2023/08/31 11:13:39;;;;;;;4.60;2.90;;;;;;;;;;5079755;28;20181;-83
2023/08/31 11:16:06;;;;;;;5.77;3.17;;;;;;;;;;5075740;28;20177;-84
2023/08/31 11:18:32;;;;;;;3.37;2.60;;;;;;;;;;5055039;28;20185;-83
2023/08/31 11:20:59;;;;;;;3.77;2.80;;;;;;;;;;5050576;28;20184;-83
2023/08/31 11:23:26;;;;;;;4.23;2.73;;;;;;;;;;5088209;28;20500;-85
2023/08/31 11:25:52;;;;;;;3.77;2.67;;;;;;;;;;5075837;28;20260;-83
2023/08/31 11:28:18;;;;;;;2.73;2.50;;;;;;;;;;5083968;28;20894;-83
2023/08/31 11:30:46;;;;;;;6.87;2.67;;;;;;;;;;5073163;28;20170;-83
2023/08/31 11:33:14;;;;;;;2.93;2.37;;;;;;;;;;5076732;28;20688;-82
2023/08/31 11:35:42;;;;;;;4.13;2.80;;;;;;;;;;5070187;28;20178;-83
2023/08/31 11:38:08;;;;;;;6.10;2.93;;;;;;;;;;5071828;28;20205;-82
2023/08/31 11:40:35;;;;;;;3.80;2.87;;;;;;;;;;5075842;28;20173;-83
2023/08/31 11:43:03;;;;;;;5.40;3.37;;;;;;;;;;5076030;28;20176;-82
2023/08/31 11:45:30;;;;;;;3.63;3.00;;;;;;;;;;5075300;28;20229;-84
2023/08/31 11:47:56;;;;;;;4.07;2.60;;;;;;;;;;5074203;28;20209;-83
2023/08/31 11:50:22;;;;;;;5.30;3.00;;;;;;;;;;5075883;28;20177;-85
2023/08/31 11:52:48;;;;;;;9.43;3.13;;;;;;;;;;5076341;28;20173;-84
2023/08/31 11:55:17;;;;;;;4.07;2.90;;;;;;;;;;5076655;28;20188;-83
2023/08/31 11:57:48;;;;;;;4.10;2.80;;;;;;;;;;5078595;28;20195;-84
2023/08/31 12:00:17;;;;;;;4.17;3.07;;;;;;;;;;5081511;28;20194;-83
2023/08/31 12:02:46;;;;;;;4.53;2.97;;;;;;;;;;5061864;28;20204;-83
2023/08/31 12:05:12;;;;;;;3.93;2.70;;;;;;;;;;5081233;28;20620;-84
2023/08/31 12:07:41;;;;;;;3.47;3.17;;;;;;;;;;5084994;28;20199;-84
2023/08/31 12:10:08;;;;;;;3.97;3.00;;;;;;;;;;5084238;28;20210;-86
2023/08/31 12:12:34;;;;;;;3.67;3.10;;;;;;;;;;5081429;28;20173;-86
2023/08/31 12:15:03;;;;;;;5.40;3.10;;;;;;;;;;5062962;28;20186;-87
2023/08/31 12:17:30;;;;;;;3.00;2.70;;;;;;;;;;5063145;28;20189;-85
2023/08/31 12:20:04;;;;;;;4.60;3.53;;;;;;;;;;5079950;28;20212;-84
2023/08/31 12:22:30;;;;;;;4.67;3.10;;;;;;;;;;5069418;28;20579;-86
2023/08/31 12:24:56;;;;;;;4.30;3.20;;;;;;;;;;5061344;28;20214;-86
2023/08/31 12:27:22;;;;;;;4.70;3.77;;;;;;;;;;5071174;28;20241;-86
2023/08/31 12:29:50;;;;;;;3.77;3.13;;;;;;;;;;5079308;28;20264;-86
2023/08/31 12:32:18;;;;;;;6.90;3.17;;;;;;;;;;5060950;28;20266;-86
2023/08/31 12:34:44;;;;;;;3.87;3.23;;;;;;;;;;5079834;28;20179;-86
2023/08/31 12:37:10;;;;;;;6.07;2.77;;;;;;;;;;5061849;28;20189;-86
2023/08/31 12:39:37;;;;;;;3.97;3.23;;;;;;;;;;5079055;28;20535;-86
2023/08/31 12:42:03;;;;;;;3.57;2.67;;;;;;;;;;5080070;28;20287;-86
2023/08/31 12:44:29;;;;;;;4.33;3.47;;;;;;;;;;5077388;28;20193;-86
2023/08/31 12:46:55;;;;;;;5.20;2.87;;;;;;;;;;5075105;28;20177;-85
2023/08/31 12:49:22;;;;;;;3.27;2.97;;;;;;;;;;5070936;28;20175;-87
2023/08/31 12:51:50;;;;;;;8.87;3.33;;;;;;;;;;5070284;28;20720;-86
2023/08/31 12:54:16;;;;;;;5.60;3.30;;;;;;;;;;5074000;28;20184;-86
2023/08/31 12:56:43;;;;;;;5.67;3.10;;;;;;;;;;5076406;28;20180;-86
2023/08/31 12:59:09;;;;;;;4.63;2.83;;;;;;;;;;5074607;28;20185;-86
2023/08/31 13:01:35;;;;;;;4.70;3.03;;;;;;;;;;5067570;28;20632;-85
2023/08/31 13:04:02;;;;;;;3.50;2.90;;;;;;;;;;5074522;28;20180;-86
2023/08/31 13:06:28;;;;;;;4.50;3.00;;;;;;;;;;5074771;28;20692;-87
2023/08/31 13:08:54;;;;;;;4.17;2.90;;;;;;;;;;5075757;28;20295;-86
2023/08/31 13:11:23;;;;;;;5.53;3.07;;;;;;;;;;5076499;28;20180;-87
2023/08/31 13:13:53;;;;;;;5.13;3.37;;;;;;;;;;5057368;28;20161;-86
2023/08/31 13:16:19;;;;;;;7.07;2.90;;;;;;;;;;5073000;28;20168;-86
2023/08/31 13:18:45;;;;;;;5.10;3.20;;;;;;;;;;5071570;28;20172;-82
2023/08/31 13:21:11;;;;;;;8.30;5.67;;;;;;;;;;5074694;28;20168;-89
2023/08/31 13:23:37;;;;;;;9.83;4.63;;;;;;;;;;5071977;28;20208;-80
2023/08/31 13:26:03;;;;;;;7.13;3.80;;;;;;;;;;5072395;28;20191;-81
2023/08/31 13:28:29;;;;;;;6.60;3.40;;;;;;;;;;5058105;28;20212;-81
2023/08/31 13:31:00;;;;;;;5.70;3.20;;;;;;;;;;5077724;28;20169;-81
2023/08/31 13:33:28;;;;;;;5.70;2.47;;;;;;;;;;5079217;28;20181;-82
2023/08/31 13:35:54;;;;;;;3.33;2.93;;;;;;;;;;5059722;28;20165;-81
2023/08/31 13:38:20;;;;;;;4.67;2.90;;;;;;;;;;5078303;28;20222;-83
2023/08/31 13:40:46;;;;;;;3.70;2.90;;;;;;;;;;5079571;28;20172;-83
2023/08/31 13:43:12;;;;;;;3.20;2.90;;;;;;;;;;5080678;28;20208;-81
2023/08/31 13:45:38;;;;;;;3.43;2.97;;;;;;;;;;5072512;28;20192;-81
2023/08/31 13:48:05;;;;;;;5.03;2.60;;;;;;;;;;5053248;28;20231;-81
2023/08/31 13:50:31;;;;;;;4.10;2.70;;;;;;;;;;5078523;28;20185;-81
2023/08/31 13:52:57;;;;;;;4.63;3.17;;;;;;;;;;5086151;28;20693;-81
2023/08/31 13:55:23;;;;;;;3.50;2.80;;;;;;;;;;5075871;28;20169;-85
2023/08/31 13:57:50;;;;;;;4.83;2.80;;;;;;;;;;5071366;28;20228;-86
2023/08/31 14:00:17;;;;;;;3.10;2.80;;;;;;;;;;5047994;28;20318;-86
2023/08/31 14:02:43;;;;;;;4.37;3.13;;;;;;;;;;5068578;28;20201;-82
2023/08/31 14:05:09;;;;;;;5.07;2.90;;;;;;;;;;5054684;28;20232;-86
2023/08/31 14:07:36;;;;;;;4.80;3.40;;;;;;;;;;5067956;28;20220;-84
2023/08/31 14:10:05;;;;;;;6.20;3.40;;;;;;;;;;5066793;28;20177;-83
2023/08/31 14:12:31;;;;;;;6.60;3.03;;;;;;;;;;5076733;28;20176;-84
2023/08/31 14:14:57;;;;;;;2.70;2.50;;;;;;;;;;5087131;28;20179;-85
2023/08/31 14:17:24;;;;;;;5.33;2.50;;;;;;;;;;5078229;28;20215;-83
2023/08/31 14:19:50;;;;;;;4.77;2.93;;;;;;;;;;5077781;28;20185;-83
2023/08/31 14:22:16;;;;;;;3.47;3.00;;;;;;;;;;5077499;28;20644;-83
2023/08/31 14:24:42;;;;;;;4.20;3.00;;;;;;;;;;5071361;28;20180;-83
2023/08/31 14:27:08;;;;;;;3.13;2.93;;;;;;;;;;5074216;28;20188;-84
2023/08/31 14:29:35;;;;;;;5.10;3.00;;;;;;;;;;5077788;28;20258;-80
2023/08/31 14:32:01;;;;;;;4.97;3.43;;;;;;;;;;5076580;28;20177;-79
2023/08/31 14:34:27;;;;;;;4.33;3.10;;;;;;;;;;5077123;28;20686;-83
2023/08/31 14:36:57;;;;;;;13.40;4.17;;;;;;;;;;5077502;28;20180;-79
2023/08/31 14:39:28;;;;;;;4.23;3.27;;;;;;;;;;5077490;28;20541;-82
2023/08/31 14:41:54;;;;;;;4.53;3.00;;;;;;;;;;5075550;28;20227;-79